createdAt,value
2023-04-06T00:00:12.586Z,6.10
2023-04-06T00:02:39.519Z,6.10
2023-04-06T00:05:06.996Z,6.10
2023-04-06T00:07:34.434Z,6.10
2023-04-06T00:10:02.532Z,6.10
2023-04-06T00:12:29.387Z,6.10
2023-04-06T00:14:56.238Z,6.20
2023-04-06T00:17:23.160Z,6.20
2023-04-06T00:19:50.070Z,6.20
2023-04-06T00:22:16.938Z,6.20
2023-04-06T00:24:43.810Z,6.20
2023-04-06T00:27:10.728Z,6.20
2023-04-06T00:29:37.888Z,6.20
2023-04-06T00:32:04.840Z,6.20
2023-04-06T00:34:31.769Z,6.20
2023-04-06T00:36:59.426Z,6.20
2023-04-06T00:39:26.315Z,6.20
2023-04-06T00:41:53.738Z,6.10
2023-04-06T00:44:21.648Z,6.20
2023-04-06T00:46:48.610Z,6.10
2023-04-06T00:49:15.476Z,6.10
2023-04-06T00:51:42.344Z,6.00
2023-04-06T00:54:09.194Z,6.00
2023-04-06T00:56:36.734Z,6.00
2023-04-06T00:59:03.823Z,6.00
2023-04-06T01:01:33.507Z,5.90
2023-04-06T01:04:06.318Z,5.90
2023-04-06T01:06:41.209Z,5.90
2023-04-06T01:09:08.541Z,5.90
2023-04-06T01:11:36.576Z,5.90
2023-04-06T01:14:06.300Z,5.90
2023-04-06T01:16:50.364Z,5.90
2023-04-06T01:19:21.665Z,5.90
2023-04-06T01:21:54.168Z,5.90
2023-04-06T01:24:33.092Z,5.90
2023-04-06T01:27:10.606Z,6.00
2023-04-06T01:30:03.993Z,6.00
2023-04-06T01:32:53.469Z,5.90
2023-04-06T01:35:35.008Z,5.90
2023-04-06T01:38:15.655Z,5.80
2023-04-06T01:40:42.568Z,5.80
2023-04-06T01:43:10.241Z,5.70
2023-04-06T01:45:48.765Z,5.70
2023-04-06T01:48:20.129Z,5.60
2023-04-06T01:50:47.167Z,5.60
2023-04-06T01:53:19.677Z,5.50
2023-04-06T01:55:48.712Z,5.40
2023-04-06T01:58:29.950Z,5.40
2023-04-06T02:00:57.539Z,5.30
2023-04-06T02:03:25.452Z,5.30
2023-04-06T02:06:01.485Z,5.30
2023-04-06T02:08:34.023Z,5.30
2023-04-06T02:11:00.921Z,5.40
2023-04-06T02:13:34.333Z,5.40
2023-04-06T02:16:03.517Z,5.40
2023-04-06T02:18:33.567Z,5.40
2023-04-06T02:21:00.404Z,5.50
2023-04-06T02:23:27.676Z,5.50
2023-04-06T02:25:54.581Z,5.60
2023-04-06T02:28:21.884Z,5.50
2023-04-06T02:30:48.815Z,5.60
2023-04-06T02:33:15.824Z,5.60
2023-04-06T02:35:47.005Z,5.60
2023-04-06T02:38:13.985Z,5.60
2023-04-06T02:40:41.023Z,5.60
2023-04-06T02:43:21.581Z,5.60
2023-04-06T02:45:52.142Z,5.60
2023-04-06T02:48:21.182Z,5.60
2023-04-06T02:50:47.997Z,5.60
2023-04-06T02:53:14.942Z,5.60
2023-04-06T02:55:42.014Z,5.70
2023-04-06T02:58:08.906Z,5.70
2023-04-06T03:00:44.200Z,5.70
2023-04-06T03:03:11.203Z,5.70
2023-04-06T03:05:38.393Z,5.70
2023-04-06T03:08:06.198Z,5.70
2023-04-06T03:10:45.467Z,5.70
2023-04-06T03:13:13.054Z,5.70
2023-04-06T03:15:52.203Z,5.70
2023-04-06T03:18:25.228Z,5.70
2023-04-06T03:20:56.428Z,5.70
2023-04-06T03:23:28.861Z,5.60
2023-04-06T03:25:59.858Z,5.60
2023-04-06T03:28:27.537Z,5.60
2023-04-06T03:30:58.142Z,5.60
2023-04-06T03:33:57.603Z,5.50
2023-04-06T03:36:31.905Z,5.40
2023-04-06T03:38:59.627Z,5.40
2023-04-06T03:41:26.525Z,5.40
2023-04-06T03:44:08.177Z,5.30
2023-04-06T03:46:35.093Z,5.20
2023-04-06T03:49:02.002Z,5.20
2023-04-06T03:51:29.338Z,5.20
2023-04-06T03:53:56.165Z,5.20
2023-04-06T03:56:23.041Z,5.10
2023-04-06T03:58:52.944Z,5.10
2023-04-06T04:01:21.544Z,5.00
2023-04-06T04:03:50.989Z,5.00
2023-04-06T04:06:18.568Z,4.90
2023-04-06T04:08:45.735Z,4.90
2023-04-06T04:11:12.571Z,4.90
2023-04-06T04:13:39.882Z,4.90
2023-04-06T04:16:07.884Z,4.90
2023-04-06T04:18:36.213Z,4.90
2023-04-06T04:21:03.119Z,4.90
2023-04-06T04:23:30.045Z,4.90
2023-04-06T04:25:56.907Z,4.80
2023-04-06T04:28:23.940Z,4.80
2023-04-06T04:30:54.818Z,4.90
2023-04-06T04:33:22.841Z,4.80
2023-04-06T04:35:51.256Z,4.80
2023-04-06T04:38:21.619Z,4.80
2023-04-06T04:40:52.455Z,4.80
2023-04-06T04:43:19.455Z,4.80
2023-04-06T04:45:46.915Z,4.80
2023-04-06T04:48:26.550Z,4.70
2023-04-06T04:51:01.067Z,4.70
2023-04-06T04:53:36.314Z,4.70
2023-04-06T04:56:14.877Z,4.70
2023-04-06T04:58:42.303Z,4.70
2023-04-06T05:01:09.426Z,4.70
2023-04-06T05:03:39.785Z,4.70
2023-04-06T05:06:10.083Z,4.70
2023-04-06T05:08:40.615Z,4.70
2023-04-06T05:11:08.125Z,4.70
2023-04-06T05:13:39.772Z,4.80
2023-04-06T05:16:12.878Z,4.80
2023-04-06T05:18:39.832Z,4.80
2023-04-06T05:21:07.397Z,4.80
2023-04-06T05:23:55.015Z,4.90
2023-04-06T05:26:22.577Z,5.00
2023-04-06T05:28:52.452Z,5.10
2023-04-06T05:31:19.571Z,5.20
2023-04-06T05:33:49.964Z,5.60
2023-04-06T05:36:24.518Z,6.30
2023-04-06T05:38:53.927Z,7.00
2023-04-06T05:41:37.950Z,7.50
2023-04-06T05:44:04.897Z,7.80
2023-04-06T05:46:33.111Z,7.90
2023-04-06T05:49:01.243Z,7.90
2023-04-06T05:51:31.554Z,7.70
2023-04-06T05:53:59.086Z,7.70
2023-04-06T05:56:27.369Z,8.10
2023-04-06T05:58:54.467Z,8.60
2023-04-06T06:01:27.264Z,9.30
2023-04-06T06:03:54.597Z,9.80
2023-04-06T06:06:23.657Z,10.00
2023-04-06T06:09:16.450Z,10.10
2023-04-06T06:11:52.958Z,10.20
2023-04-06T06:14:24.103Z,10.40
2023-04-06T06:16:51.002Z,10.50
2023-04-06T06:19:18.032Z,10.40
2023-04-06T06:21:45.966Z,10.60
2023-04-06T06:24:12.853Z,11.20
2023-04-06T06:26:40.955Z,12.00
2023-04-06T06:29:09.340Z,12.70
2023-04-06T06:31:39.192Z,13.60
2023-04-06T06:34:06.517Z,14.50
2023-04-06T06:36:36.419Z,15.20
2023-04-06T06:39:06.930Z,15.90
2023-04-06T06:41:34.108Z,16.60
2023-04-06T06:44:01.177Z,17.20
2023-04-06T06:46:29.012Z,17.70
2023-04-06T06:48:56.100Z,18.00
2023-04-06T06:51:22.943Z,18.30
2023-04-06T06:53:49.811Z,18.50
2023-04-06T06:56:17.052Z,18.80
2023-04-06T06:58:44.006Z,18.80
2023-04-06T07:01:11.138Z,19.00
2023-04-06T07:03:38.809Z,19.20
2023-04-06T07:06:05.809Z,19.50
2023-04-06T07:08:32.818Z,20.00
2023-04-06T07:10:59.854Z,20.20
2023-04-06T07:13:28.399Z,20.20
2023-04-06T07:15:57.725Z,20.40
2023-04-06T07:18:24.853Z,20.80
2023-04-06T07:20:51.779Z,20.90
2023-04-06T07:23:19.095Z,21.10
2023-04-06T07:25:46.609Z,21.30
2023-04-06T07:28:13.467Z,21.40
2023-04-06T07:30:41.537Z,21.70
2023-04-06T07:33:10.097Z,21.90
2023-04-06T07:35:38.294Z,21.90
2023-04-06T07:38:06.342Z,22.10
2023-04-06T07:40:34.564Z,22.10
2023-04-06T07:43:03.000Z,22.40
2023-04-06T07:45:30.372Z,22.50
2023-04-06T07:47:57.725Z,22.50
2023-04-06T07:50:26.455Z,22.50
2023-04-06T07:52:54.343Z,22.50
2023-04-06T07:55:21.658Z,22.50
2023-04-06T07:57:48.970Z,22.30
2023-04-06T08:00:16.823Z,22.40
2023-04-06T08:02:44.742Z,22.60
2023-04-06T08:05:12.404Z,22.70
2023-04-06T08:07:39.797Z,22.90
2023-04-06T08:10:07.392Z,22.80
2023-04-06T08:12:35.159Z,22.80
2023-04-06T08:15:03.646Z,22.70
2023-04-06T08:17:32.247Z,22.40
2023-04-06T08:19:59.242Z,22.10
2023-04-06T08:22:26.562Z,21.90
2023-04-06T08:24:53.709Z,21.70
2023-04-06T08:27:20.579Z,22.20
2023-04-06T08:29:48.422Z,22.50
2023-04-06T08:32:15.279Z,22.80
2023-04-06T08:34:42.140Z,23.00
2023-04-06T08:37:09.058Z,23.00
2023-04-06T08:39:36.198Z,22.60
2023-04-06T08:42:04.125Z,23.10
2023-04-06T08:44:33.140Z,23.60
2023-04-06T08:47:01.434Z,23.60
2023-04-06T08:49:28.594Z,23.60
2023-04-06T08:51:56.060Z,24.00
2023-04-06T08:54:22.904Z,24.20
2023-04-06T08:56:50.012Z,24.30
2023-04-06T08:59:17.000Z,24.30
2023-04-06T09:01:45.090Z,23.40
2023-04-06T09:04:13.477Z,22.50
2023-04-06T09:06:41.780Z,23.10
2023-04-06T09:09:09.041Z,23.80
2023-04-06T09:11:49.108Z,24.50
2023-04-06T09:14:16.470Z,25.10
2023-04-06T09:16:44.542Z,25.40
2023-04-06T09:19:11.802Z,25.60
2023-04-06T09:21:40.830Z,25.30
2023-04-06T09:24:09.001Z,25.30
2023-04-06T09:26:45.487Z,25.80
2023-04-06T09:29:23.036Z,25.80
2023-04-06T09:31:50.048Z,25.50
2023-04-06T09:34:24.072Z,25.30
2023-04-06T09:36:53.094Z,25.50
2023-04-06T09:39:21.864Z,25.20
2023-04-06T09:41:51.021Z,25.60
2023-04-06T09:44:18.161Z,26.00
2023-04-06T09:46:59.912Z,25.50
2023-04-06T09:49:31.730Z,25.30
2023-04-06T09:52:00.226Z,25.10
2023-04-06T09:54:29.259Z,25.80
2023-04-06T09:56:59.773Z,25.80
2023-04-06T09:59:26.811Z,25.40
2023-04-06T10:01:54.487Z,25.10
2023-04-06T10:04:32.732Z,24.80
2023-04-06T10:07:00.677Z,24.40
2023-04-06T10:09:32.298Z,23.90
2023-04-06T10:11:59.369Z,23.90
2023-04-06T10:14:26.485Z,25.00
2023-04-06T10:16:53.625Z,25.20
2023-04-06T10:19:25.997Z,25.40
2023-04-06T10:21:55.583Z,26.00
2023-04-06T10:24:22.550Z,26.00
2023-04-06T10:26:59.320Z,25.80
2023-04-06T10:29:26.190Z,26.00
2023-04-06T10:31:53.182Z,25.90
2023-04-06T10:34:20.248Z,26.50
2023-04-06T10:36:47.204Z,27.40
2023-04-06T10:39:14.088Z,28.10
2023-04-06T10:41:40.963Z,28.40
2023-04-06T10:44:07.947Z,28.40
2023-04-06T10:46:35.342Z,28.50
2023-04-06T10:49:13.235Z,29.10
2023-04-06T10:51:40.441Z,29.80
2023-04-06T10:54:07.652Z,30.60
2023-04-06T10:56:37.582Z,30.70
2023-04-06T10:59:04.457Z,30.70
2023-04-06T11:01:31.449Z,30.00
2023-04-06T11:04:01.252Z,29.90
2023-04-06T11:06:30.169Z,30.10
2023-04-06T11:08:57.433Z,30.40
2023-04-06T11:11:26.819Z,30.90
2023-04-06T11:13:57.610Z,30.90
2023-04-06T11:16:24.535Z,30.80
2023-04-06T11:19:13.437Z,29.90
2023-04-06T11:21:43.065Z,28.90
2023-04-06T11:24:16.418Z,28.20
2023-04-06T11:26:51.960Z,27.90
2023-04-06T11:29:22.687Z,27.50
2023-04-06T11:31:51.167Z,27.60
2023-04-06T11:34:19.471Z,27.70
2023-04-06T11:36:47.078Z,27.50
2023-04-06T11:39:14.875Z,27.50
2023-04-06T11:41:41.912Z,27.60
2023-04-06T11:44:08.865Z,27.40
2023-04-06T11:46:35.882Z,27.50
2023-04-06T11:49:03.394Z,27.70
2023-04-06T11:51:30.425Z,27.60
2023-04-06T11:53:57.328Z,27.90
2023-04-06T11:56:25.526Z,28.60
2023-04-06T11:58:52.733Z,28.80
2023-04-06T12:01:19.700Z,29.40
2023-04-06T12:03:46.840Z,28.90
2023-04-06T12:06:14.334Z,28.70
2023-04-06T12:08:41.750Z,29.50
2023-04-06T12:11:08.694Z,29.90
2023-04-06T12:13:35.686Z,29.30
2023-04-06T12:16:02.601Z,29.00
2023-04-06T12:18:30.409Z,28.30
2023-04-06T12:20:57.313Z,28.00
2023-04-06T12:23:24.595Z,28.20
2023-04-06T12:25:51.650Z,28.50
2023-04-06T12:28:18.701Z,28.80
2023-04-06T12:30:45.582Z,28.30
2023-04-06T12:33:12.587Z,27.90
2023-04-06T12:35:39.961Z,27.70
2023-04-06T12:38:07.194Z,27.40
2023-04-06T12:40:37.383Z,27.40
2023-04-06T12:43:04.263Z,27.90
2023-04-06T12:45:34.265Z,28.30
2023-04-06T12:48:01.310Z,28.90
2023-04-06T12:50:28.173Z,29.40
2023-04-06T12:52:55.081Z,30.00
2023-04-06T12:55:22.610Z,30.30
2023-04-06T12:57:49.463Z,30.30
2023-04-06T13:00:16.697Z,30.30
2023-04-06T13:02:48.195Z,30.00
2023-04-06T13:05:19.655Z,29.90
2023-04-06T13:07:47.818Z,29.70
2023-04-06T13:10:14.775Z,29.20
2023-04-06T13:12:41.691Z,28.40
2023-04-06T13:15:08.821Z,27.60
2023-04-06T13:17:35.737Z,27.20
2023-04-06T13:20:02.667Z,27.20
2023-04-06T13:22:29.596Z,26.80
2023-04-06T13:24:56.507Z,26.50
2023-04-06T13:27:23.359Z,26.00
2023-04-06T13:29:50.405Z,25.60
2023-04-06T13:32:17.337Z,25.20
2023-04-06T13:34:45.918Z,25.00
2023-04-06T13:37:14.317Z,25.30
2023-04-06T13:39:41.446Z,25.70
2023-04-06T13:42:08.382Z,26.30
2023-04-06T13:44:35.286Z,26.80
2023-04-06T13:47:02.189Z,26.70
2023-04-06T13:49:29.128Z,26.30
2023-04-06T13:51:56.120Z,25.70
2023-04-06T13:54:23.061Z,25.10
2023-04-06T13:56:49.888Z,24.90
2023-04-06T13:59:16.895Z,24.80
2023-04-06T14:01:44.066Z,24.30
2023-04-06T14:04:11.121Z,23.70
2023-04-06T14:06:38.116Z,23.90
2023-04-06T14:09:05.106Z,24.30
2023-04-06T14:11:33.018Z,24.40
2023-04-06T14:14:00.271Z,24.40
2023-04-06T14:16:27.574Z,23.90
2023-04-06T14:18:54.678Z,23.60
2023-04-06T14:21:21.593Z,23.40
2023-04-06T14:23:48.443Z,23.00
2023-04-06T14:26:15.302Z,22.60
2023-04-06T14:28:42.434Z,21.70
2023-04-06T14:31:14.197Z,20.90
2023-04-06T14:33:41.604Z,20.70
2023-04-06T14:36:09.230Z,20.50
2023-04-06T14:38:36.616Z,20.50
2023-04-06T14:41:03.493Z,20.70
2023-04-06T14:43:30.863Z,20.30
2023-04-06T14:46:01.567Z,20.00
2023-04-06T14:48:28.974Z,19.90
2023-04-06T14:50:56.707Z,19.90
2023-04-06T14:53:24.554Z,20.00
2023-04-06T14:55:52.531Z,19.90
2023-04-06T14:58:19.721Z,19.80
2023-04-06T15:00:46.552Z,19.80
2023-04-06T15:03:13.860Z,19.60
2023-04-06T15:05:41.078Z,19.80
2023-04-06T15:08:10.139Z,19.90
2023-04-06T15:10:37.278Z,19.70
2023-04-06T15:13:04.207Z,19.60
2023-04-06T15:15:31.141Z,19.80
2023-04-06T15:17:58.043Z,19.50
2023-04-06T15:20:24.915Z,19.50
2023-04-06T15:22:51.769Z,19.10
2023-04-06T15:25:18.657Z,18.70
2023-04-06T15:27:45.418Z,18.50
2023-04-06T15:30:12.477Z,18.60
2023-04-06T15:32:39.410Z,18.80
2023-04-06T15:35:12.743Z,18.90
2023-04-06T15:37:39.915Z,18.90
2023-04-06T15:40:07.159Z,18.80
2023-04-06T15:42:34.068Z,18.60
2023-04-06T15:45:01.710Z,18.10
2023-04-06T15:47:28.768Z,17.70
2023-04-06T15:49:55.717Z,17.40
2023-04-06T15:52:22.970Z,17.20
2023-04-06T15:54:50.093Z,17.00
2023-04-06T15:57:16.928Z,17.00
2023-04-06T15:59:43.753Z,17.10
2023-04-06T16:02:10.735Z,17.00
2023-04-06T16:04:37.852Z,16.90
2023-04-06T16:07:04.927Z,16.80
2023-04-06T16:09:31.814Z,16.70
2023-04-06T16:11:58.656Z,16.50
2023-04-06T16:14:25.736Z,16.50
2023-04-06T16:16:53.117Z,16.40
2023-04-06T16:19:19.972Z,16.20
2023-04-06T16:21:47.612Z,16.00
2023-04-06T16:24:14.439Z,15.80
2023-04-06T16:26:42.057Z,15.80
2023-04-06T16:29:10.408Z,15.80
2023-04-06T16:31:37.446Z,15.90
2023-04-06T16:34:04.479Z,15.90
2023-04-06T16:36:32.066Z,16.00
2023-04-06T16:38:59.567Z,16.00
2023-04-06T16:41:27.550Z,16.10
2023-04-06T16:43:57.152Z,16.00
2023-04-06T16:46:34.286Z,15.90
2023-04-06T16:49:01.615Z,15.90
2023-04-06T16:51:29.006Z,15.90
2023-04-06T16:53:56.068Z,15.80
2023-04-06T16:56:23.030Z,15.80
2023-04-06T16:58:49.942Z,15.70
2023-04-06T17:01:24.074Z,15.60
2023-04-06T17:03:51.375Z,15.50
2023-04-06T17:06:18.788Z,15.40
2023-04-06T17:08:46.461Z,15.20
2023-04-06T17:11:16.086Z,15.20
2023-04-06T17:13:45.010Z,15.10
2023-04-06T17:16:12.349Z,15.00
2023-04-06T17:18:39.199Z,14.90
2023-04-06T17:21:14.420Z,14.80
2023-04-06T17:23:41.683Z,14.70
2023-04-06T17:26:08.636Z,14.60
2023-04-06T17:28:35.693Z,14.50
2023-04-06T17:31:02.739Z,14.30
2023-04-06T17:33:32.508Z,14.20
2023-04-06T17:35:59.471Z,14.10
2023-04-06T17:38:26.519Z,14.00
2023-04-06T17:40:53.341Z,13.80
2023-04-06T17:43:20.223Z,13.70
2023-04-06T17:45:52.716Z,13.50
2023-04-06T17:48:19.652Z,13.50
2023-04-06T17:50:46.484Z,13.40
2023-04-06T17:53:13.578Z,13.20
2023-04-06T17:55:40.586Z,13.10
2023-04-06T17:58:07.369Z,13.00
2023-04-06T18:00:34.181Z,12.80
2023-04-06T18:03:01.221Z,12.70
2023-04-06T18:05:28.159Z,12.70
2023-04-06T18:07:57.968Z,12.60
2023-04-06T18:10:24.863Z,12.50
2023-04-06T18:12:52.437Z,12.50
2023-04-06T18:15:19.225Z,12.40
2023-04-06T18:17:47.174Z,12.30
2023-04-06T18:20:15.840Z,12.20
2023-04-06T18:22:43.204Z,12.10
2023-04-06T18:25:10.833Z,12.10
2023-04-06T18:27:38.259Z,12.00
2023-04-06T18:30:05.887Z,12.00
2023-04-06T18:32:32.937Z,11.90
2023-04-06T18:34:59.857Z,11.80
2023-04-06T18:37:26.731Z,11.70
2023-04-06T18:39:54.522Z,11.70
2023-04-06T18:42:21.377Z,11.60
2023-04-06T18:44:48.438Z,11.50
2023-04-06T18:47:15.760Z,11.50
2023-04-06T18:49:42.702Z,11.50
2023-04-06T18:52:09.512Z,11.50
2023-04-06T18:54:36.331Z,11.50
2023-04-06T18:57:04.444Z,11.40
2023-04-06T18:59:31.830Z,11.50
2023-04-06T19:01:59.555Z,11.50
2023-04-06T19:04:29.340Z,11.50
2023-04-06T19:06:56.563Z,11.50
2023-04-06T19:09:23.624Z,11.40
2023-04-06T19:11:51.094Z,11.40
2023-04-06T19:14:18.022Z,11.40
2023-04-06T19:16:52.594Z,11.40
2023-04-06T19:19:20.032Z,11.40
2023-04-06T19:21:47.034Z,11.30
2023-04-06T19:24:13.887Z,11.40
2023-04-06T19:26:42.668Z,11.30
2023-04-06T19:29:09.984Z,11.30
2023-04-06T19:31:37.075Z,11.20
2023-04-06T19:34:04.682Z,11.10
2023-04-06T19:36:32.437Z,11.10
2023-04-06T19:38:59.611Z,11.10
2023-04-06T19:41:27.435Z,11.10
2023-04-06T19:43:54.385Z,11.00
2023-04-06T19:46:21.648Z,11.00
2023-04-06T19:48:48.575Z,11.00
2023-04-06T19:51:15.529Z,10.90
2023-04-06T19:53:42.617Z,10.90
2023-04-06T19:56:10.326Z,10.90
2023-04-06T19:58:37.795Z,10.80
2023-04-06T20:01:05.158Z,10.80
2023-04-06T20:03:32.824Z,10.70
2023-04-06T20:06:00.003Z,10.70
2023-04-06T20:08:26.823Z,10.70
2023-04-06T20:10:59.811Z,10.70
2023-04-06T20:13:26.620Z,10.70
2023-04-06T20:15:53.471Z,10.60
2023-04-06T20:18:20.406Z,10.60
2023-04-06T20:20:47.375Z,10.50
2023-04-06T20:23:14.245Z,10.50
2023-04-06T20:25:41.179Z,10.50
2023-04-06T20:28:11.014Z,10.40
2023-04-06T20:30:38.019Z,10.40
2023-04-06T20:33:04.920Z,10.30
2023-04-06T20:35:32.123Z,10.30
2023-04-06T20:37:59.108Z,10.30
2023-04-06T20:40:25.949Z,10.20
2023-04-06T20:42:55.974Z,10.20
2023-04-06T20:45:23.241Z,10.20
2023-04-06T20:47:53.607Z,10.10
2023-04-06T20:50:21.075Z,10.10
2023-04-06T20:52:48.703Z,10.10
2023-04-06T20:55:15.743Z,10.10
2023-04-06T20:57:43.654Z,10.00
2023-04-06T21:00:12.278Z,10.00
2023-04-06T21:02:39.527Z,10.00
2023-04-06T21:05:08.769Z,9.90
2023-04-06T21:07:36.812Z,9.90
2023-04-06T21:10:03.939Z,9.90
2023-04-06T21:12:30.736Z,9.90
2023-04-06T21:14:57.666Z,9.90
2023-04-06T21:17:24.647Z,9.80
2023-04-06T21:19:51.501Z,9.80
2023-04-06T21:22:18.380Z,9.80
2023-04-06T21:24:45.346Z,9.80
2023-04-06T21:27:13.143Z,9.70
2023-04-06T21:29:40.327Z,9.70
2023-04-06T21:32:07.200Z,9.70
2023-04-06T21:34:34.004Z,9.70
2023-04-06T21:37:01.098Z,9.70
2023-04-06T21:39:28.010Z,9.70
2023-04-06T21:41:54.796Z,9.70
2023-04-06T21:44:21.709Z,9.60
2023-04-06T21:46:48.649Z,9.60
2023-04-06T21:49:15.568Z,9.60
2023-04-06T21:51:42.406Z,9.60
2023-04-06T21:54:10.039Z,9.60
2023-04-06T21:56:37.001Z,9.60
2023-04-06T21:59:03.804Z,9.70
2023-04-06T22:01:30.913Z,9.60
2023-04-06T22:03:57.904Z,9.60
2023-04-06T22:06:25.804Z,9.60
2023-04-06T22:08:52.777Z,9.60
2023-04-06T22:11:19.656Z,9.50
2023-04-06T22:13:46.834Z,9.50
2023-04-06T22:16:14.686Z,9.50
2023-04-06T22:18:41.562Z,9.50
2023-04-06T22:21:08.463Z,9.40
2023-04-06T22:23:36.079Z,9.40
2023-04-06T22:26:02.913Z,9.40
2023-04-06T22:28:29.761Z,9.40
2023-04-06T22:30:56.552Z,9.30
2023-04-06T22:33:23.343Z,9.30
2023-04-06T22:35:50.312Z,9.20
2023-04-06T22:38:17.160Z,9.20
2023-04-06T22:40:44.001Z,9.20
2023-04-06T22:43:10.853Z,9.20
2023-04-06T22:45:37.811Z,9.10
2023-04-06T22:48:04.602Z,9.10
2023-04-06T22:50:31.731Z,9.10
2023-04-06T22:52:58.684Z,9.10
2023-04-06T22:55:26.133Z,9.10
2023-04-06T22:57:53.019Z,9.10
2023-04-06T23:00:19.967Z,9.00
2023-04-06T23:02:46.908Z,8.90
2023-04-06T23:05:14.004Z,8.90
2023-04-06T23:07:40.799Z,8.80
2023-04-06T23:10:07.894Z,8.80
2023-04-06T23:12:34.720Z,8.80
2023-04-06T23:15:01.554Z,8.80
2023-04-06T23:17:28.477Z,8.80
2023-04-06T23:19:55.680Z,8.80
2023-04-06T23:22:22.586Z,8.80
2023-04-06T23:24:50.104Z,8.80
2023-04-06T23:27:17.009Z,8.70
2023-04-06T23:29:43.844Z,8.70
2023-04-06T23:32:11.008Z,8.70
2023-04-06T23:34:37.883Z,8.70
2023-04-06T23:37:04.879Z,8.70
2023-04-06T23:39:31.761Z,8.60
2023-04-06T23:41:58.616Z,8.60
2023-04-06T23:44:28.929Z,8.50
2023-04-06T23:46:55.701Z,8.50
2023-04-06T23:49:22.510Z,8.50
2023-04-06T23:51:49.283Z,8.50
2023-04-06T23:54:16.138Z,8.40
2023-04-06T23:56:42.962Z,8.40
2023-04-06T23:59:09.834Z,8.50
